sensor_id;sensor_type;location;lat;lon;timestamp;temperature;humidity
47514;DHT22;33951;51.988;5.910;2023-05-29T04:00:47;10.20;99.90
47514;DHT22;33951;51.988;5.910;2023-05-29T04:03:13;10.20;99.90
47514;DHT22;33951;51.988;5.910;2023-05-29T04:05:39;10.20;99.90
47514;DHT22;33951;51.988;5.910;2023-05-29T04:08:05;10.30;99.90
47514;DHT22;33951;51.988;5.910;2023-05-29T04:10:31;10.30;99.90
47514;DHT22;33951;51.988;5.910;2023-05-29T04:13:01;10.20;99.90
47514;DHT22;33951;51.988;5.910;2023-05-29T04:15:29;10.30;99.90
47514;DHT22;33951;51.988;5.910;2023-05-29T04:17:55;10.30;99.90
47514;DHT22;33951;51.988;5.910;2023-05-29T04:20:21;10.30;99.90
47514;DHT22;33951;51.988;5.910;2023-05-29T04:22:47;10.20;99.90
47514;DHT22;33951;51.988;5.910;2023-05-29T04:25:15;10.20;99.90
47514;DHT22;33951;51.988;5.910;2023-05-29T04:27:44;10.30;99.90
47514;DHT22;33951;51.988;5.910;2023-05-29T04:30:14;10.40;99.90
47514;DHT22;33951;51.988;5.910;2023-05-29T04:32:40;10.40;99.90
47514;DHT22;33951;51.988;5.910;2023-05-29T04:35:06;10.40;99.90
47514;DHT22;33951;51.988;5.910;2023-05-29T04:37:32;10.50;99.90
47514;DHT22;33951;51.988;5.910;2023-05-29T04:40:07;10.50;99.90
47514;DHT22;33951;51.988;5.910;2023-05-29T04:42:37;10.50;99.90
47514;DHT22;33951;51.988;5.910;2023-05-29T04:45:04;10.50;99.90
47514;DHT22;33951;51.988;5.910;2023-05-29T04:47:30;10.40;99.90
47514;DHT22;33951;51.988;5.910;2023-05-29T04:50:00;10.40;99.90
47514;DHT22;33951;51.988;5.910;2023-05-29T04:52:26;10.50;99.90
47514;DHT22;33951;51.988;5.910;2023-05-29T04:54:55;10.50;99.90
47514;DHT22;33951;51.988;5.910;2023-05-29T04:57:21;10.50;99.90
47514;DHT22;33951;51.988;5.910;2023-05-29T04:59:47;10.50;99.90
47514;DHT22;33951;51.988;5.910;2023-05-29T05:02:13;10.60;99.90
47514;DHT22;33951;51.988;5.910;2023-05-29T05:04:38;10.50;99.90
47514;DHT22;33951;51.988;5.910;2023-05-29T05:07:05;10.60;99.90
47514;DHT22;33951;51.988;5.910;2023-05-29T05:09:30;10.60;99.90
47514;DHT22;33951;51.988;5.910;2023-05-29T05:11:57;10.70;99.90
47514;DHT22;33951;51.988;5.910;2023-05-29T05:14:22;10.70;99.90
47514;DHT22;33951;51.988;5.910;2023-05-29T05:16:48;10.70;99.90
47514;DHT22;33951;51.988;5.910;2023-05-29T05:19:16;10.80;99.90
47514;DHT22;33951;51.988;5.910;2023-05-29T05:21:42;10.80;99.90
47514;DHT22;33951;51.988;5.910;2023-05-29T05:24:07;10.80;99.90
47514;DHT22;33951;51.988;5.910;2023-05-29T05:26:33;10.80;99.90
47514;DHT22;33951;51.988;5.910;2023-05-29T05:28:59;10.80;99.90
47514;DHT22;33951;51.988;5.910;2023-05-29T05:31:27;10.90;99.90
47514;DHT22;33951;51.988;5.910;2023-05-29T05:33:52;10.90;99.90
47514;DHT22;33951;51.988;5.910;2023-05-29T05:36:18;11.00;99.90
47514;DHT22;33951;51.988;5.910;2023-05-29T05:38:44;10.90;99.90
47514;DHT22;33951;51.988;5.910;2023-05-29T05:41:10;11.00;99.90
47514;DHT22;33951;51.988;5.910;2023-05-29T05:43:35;11.00;99.90
47514;DHT22;33951;51.988;5.910;2023-05-29T05:46:04;11.00;99.90
47514;DHT22;33951;51.988;5.910;2023-05-29T05:48:30;11.10;99.90
47514;DHT22;33951;51.988;5.910;2023-05-29T05:50:56;11.20;99.90
47514;DHT22;33951;51.988;5.910;2023-05-29T05:53:21;11.20;99.90
47514;DHT22;33951;51.988;5.910;2023-05-29T05:55:47;11.20;99.90
47514;DHT22;33951;51.988;5.910;2023-05-29T05:58:13;11.10;99.90
47514;DHT22;33951;51.988;5.910;2023-05-29T06:00:39;11.20;99.90
47514;DHT22;33951;51.988;5.910;2023-05-29T06:03:05;11.20;99.90
47514;DHT22;33951;51.988;5.910;2023-05-29T06:05:31;11.30;99.90
47514;DHT22;33951;51.988;5.910;2023-05-29T06:07:56;11.30;99.90
47514;DHT22;33951;51.988;5.910;2023-05-29T06:10:22;11.40;99.90
47514;DHT22;33951;51.988;5.910;2023-05-29T06:12:48;11.50;99.90
47514;DHT22;33951;51.988;5.910;2023-05-29T06:15:14;11.60;99.90
47514;DHT22;33951;51.988;5.910;2023-05-29T06:17:39;11.70;99.90
47514;DHT22;33951;51.988;5.910;2023-05-29T06:20:05;11.80;99.90
47514;DHT22;33951;51.988;5.910;2023-05-29T06:22:36;11.70;99.90
47514;DHT22;33951;51.988;5.910;2023-05-29T06:25:01;11.80;99.90
47514;DHT22;33951;51.988;5.910;2023-05-29T06:27:29;11.80;99.90
47514;DHT22;33951;51.988;5.910;2023-05-29T06:29:55;11.90;99.90
47514;DHT22;33951;51.988;5.910;2023-05-29T06:32:21;12.00;99.90
47514;DHT22;33951;51.988;5.910;2023-05-29T06:34:47;12.10;99.90
47514;DHT22;33951;51.988;5.910;2023-05-29T06:37:13;12.00;99.90
47514;DHT22;33951;51.988;5.910;2023-05-29T06:39:38;12.00;99.90
47514;DHT22;33951;51.988;5.910;2023-05-29T06:42:07;12.10;99.90
47514;DHT22;33951;51.988;5.910;2023-05-29T06:44:33;12.20;99.90
47514;DHT22;33951;51.988;5.910;2023-05-29T06:46:59;12.30;99.90
47514;DHT22;33951;51.988;5.910;2023-05-29T06:49:25;12.40;99.90
47514;DHT22;33951;51.988;5.910;2023-05-29T06:51:50;12.50;99.90
47514;DHT22;33951;51.988;5.910;2023-05-29T06:54:16;12.50;99.90
47514;DHT22;33951;51.988;5.910;2023-05-29T06:56:42;12.60;99.90
47514;DHT22;33951;51.988;5.910;2023-05-29T06:59:08;12.60;99.90
47514;DHT22;33951;51.988;5.910;2023-05-29T07:01:36;12.70;99.90
47514;DHT22;33951;51.988;5.910;2023-05-29T07:04:04;12.90;99.90
47514;DHT22;33951;51.988;5.910;2023-05-29T07:06:30;13.10;99.90
47514;DHT22;33951;51.988;5.910;2023-05-29T07:08:55;13.20;99.90
47514;DHT22;33951;51.988;5.910;2023-05-29T07:11:21;13.10;99.90
47514;DHT22;33951;51.988;5.910;2023-05-29T07:13:47;13.20;99.90
47514;DHT22;33951;51.988;5.910;2023-05-29T07:16:12;13.20;99.90
47514;DHT22;33951;51.988;5.910;2023-05-29T07:18:38;13.20;99.90
47514;DHT22;33951;51.988;5.910;2023-05-29T07:21:03;13.20;99.90
47514;DHT22;33951;51.988;5.910;2023-05-29T07:23:29;13.30;99.90
47514;DHT22;33951;51.988;5.910;2023-05-29T07:25:55;13.40;99.90
47514;DHT22;33951;51.988;5.910;2023-05-29T07:28:20;13.50;99.90
47514;DHT22;33951;51.988;5.910;2023-05-29T07:30:49;13.60;99.90
47514;DHT22;33951;51.988;5.910;2023-05-29T07:33:17;13.70;99.90
47514;DHT22;33951;51.988;5.910;2023-05-29T07:35:43;13.80;99.90
47514;DHT22;33951;51.988;5.910;2023-05-29T07:38:09;13.80;99.90
47514;DHT22;33951;51.988;5.910;2023-05-29T07:40:34;13.90;99.90
47514;DHT22;33951;51.988;5.910;2023-05-29T07:43:05;13.90;99.90
47514;DHT22;33951;51.988;5.910;2023-05-29T07:45:30;14.00;99.90
47514;DHT22;33951;51.988;5.910;2023-05-29T07:47:56;14.10;99.90
47514;DHT22;33951;51.988;5.910;2023-05-29T07:50:24;14.10;99.90
47514;DHT22;33951;51.988;5.910;2023-05-29T07:52:49;14.20;99.90
47514;DHT22;33951;51.988;5.910;2023-05-29T07:55:15;14.40;99.90
47514;DHT22;33951;51.988;5.910;2023-05-29T07:57:41;14.50;99.90
47514;DHT22;33951;51.988;5.910;2023-05-29T08:00:10;14.70;99.90
47514;DHT22;33951;51.988;5.910;2023-05-29T08:02:42;14.70;99.90
47514;DHT22;33951;51.988;5.910;2023-05-29T08:05:08;14.80;99.90
47514;DHT22;33951;51.988;5.910;2023-05-29T08:07:43;14.80;99.90
47514;DHT22;33951;51.988;5.910;2023-05-29T08:10:09;14.90;99.90
47514;DHT22;33951;51.988;5.910;2023-05-29T08:12:35;14.90;99.90
47514;DHT22;33951;51.988;5.910;2023-05-29T08:15:04;14.90;99.90
47514;DHT22;33951;51.988;5.910;2023-05-29T08:17:31;15.00;99.90
47514;DHT22;33951;51.988;5.910;2023-05-29T08:19:56;15.10;99.90
47514;DHT22;33951;51.988;5.910;2023-05-29T08:22:28;15.30;99.90
47514;DHT22;33951;51.988;5.910;2023-05-29T08:24:55;15.40;99.90
47514;DHT22;33951;51.988;5.910;2023-05-29T08:27:21;15.40;99.90
47514;DHT22;33951;51.988;5.910;2023-05-29T08:29:46;15.50;99.90
47514;DHT22;33951;51.988;5.910;2023-05-29T08:32:12;15.70;99.90
47514;DHT22;33951;51.988;5.910;2023-05-29T08:34:38;15.70;99.90
47514;DHT22;33951;51.988;5.910;2023-05-29T08:37:04;15.70;99.90
47514;DHT22;33951;51.988;5.910;2023-05-29T08:39:38;15.80;99.90
47514;DHT22;33951;51.988;5.910;2023-05-29T08:42:20;15.80;99.90
47514;DHT22;33951;51.988;5.910;2023-05-29T08:44:47;15.90;99.90
47514;DHT22;33951;51.988;5.910;2023-05-29T08:47:19;16.00;99.90
47514;DHT22;33951;51.988;5.910;2023-05-29T08:49:51;16.00;99.90
47514;DHT22;33951;51.988;5.910;2023-05-29T08:52:24;16.00;99.90
47514;DHT22;33951;51.988;5.910;2023-05-29T08:54:51;16.10;99.90
47514;DHT22;33951;51.988;5.910;2023-05-29T08:59:52;16.30;99.90
47514;DHT22;33951;51.988;5.910;2023-05-29T09:02:26;16.50;99.90
47514;DHT22;33951;51.988;5.910;2023-05-29T09:04:55;16.60;99.90
47514;DHT22;33951;51.988;5.910;2023-05-29T09:07:25;16.70;99.90
47514;DHT22;33951;51.988;5.910;2023-05-29T09:09:54;16.70;99.90
47514;DHT22;33951;51.988;5.910;2023-05-29T09:12:23;16.70;99.90
47514;DHT22;33951;51.988;5.910;2023-05-29T09:14:48;16.80;99.90
47514;DHT22;33951;51.988;5.910;2023-05-29T09:17:14;16.90;99.90
47514;DHT22;33951;51.988;5.910;2023-05-29T09:19:43;16.80;99.90
47514;DHT22;33951;51.988;5.910;2023-05-29T09:22:13;16.80;99.90
47514;DHT22;33951;51.988;5.910;2023-05-29T09:24:45;17.10;99.90
47514;DHT22;33951;51.988;5.910;2023-05-29T09:27:12;17.20;99.90
47514;DHT22;33951;51.988;5.910;2023-05-29T09:29:41;17.20;99.90
47514;DHT22;33951;51.988;5.910;2023-05-29T09:32:15;17.20;99.90
47514;DHT22;33951;51.988;5.910;2023-05-29T09:34:42;17.30;99.90
47514;DHT22;33951;51.988;5.910;2023-05-29T09:37:12;17.50;99.90
47514;DHT22;33951;51.988;5.910;2023-05-29T09:39:50;17.60;99.90
47514;DHT22;33951;51.988;5.910;2023-05-29T09:42:19;17.80;99.90
47514;DHT22;33951;51.988;5.910;2023-05-29T09:44:49;17.80;99.90
47514;DHT22;33951;51.988;5.910;2023-05-29T09:47:21;17.70;99.90
47514;DHT22;33951;51.988;5.910;2023-05-29T09:49:52;17.80;99.90
47514;DHT22;33951;51.988;5.910;2023-05-29T09:52:21;17.80;99.90
47514;DHT22;33951;51.988;5.910;2023-05-29T09:54:48;18.00;99.90
47514;DHT22;33951;51.988;5.910;2023-05-29T09:57:15;18.20;99.90
47514;DHT22;33951;51.988;5.910;2023-05-29T10:02:46;18.50;99.90
47514;DHT22;33951;51.988;5.910;2023-05-29T10:05:21;18.70;99.90
47514;DHT22;33951;51.988;5.910;2023-05-29T10:07:50;18.60;99.90
47514;DHT22;33951;51.988;5.910;2023-05-29T10:10:26;18.70;99.90
47514;DHT22;33951;51.988;5.910;2023-05-29T10:12:53;19.00;99.90
47514;DHT22;33951;51.988;5.910;2023-05-29T10:15:20;19.00;99.90
47514;DHT22;33951;51.988;5.910;2023-05-29T10:18:03;19.10;99.90
47514;DHT22;33951;51.988;5.910;2023-05-29T10:20:36;19.10;99.90
47514;DHT22;33951;51.988;5.910;2023-05-29T10:23:03;19.10;99.90
47514;DHT22;33951;51.988;5.910;2023-05-29T10:25:31;19.20;99.90
47514;DHT22;33951;51.988;5.910;2023-05-29T10:27:58;19.20;99.90
47514;DHT22;33951;51.988;5.910;2023-05-29T10:30:43;19.40;99.90
47514;DHT22;33951;51.988;5.910;2023-05-29T10:36:19;19.80;99.80
47514;DHT22;33951;51.988;5.910;2023-05-29T10:38:50;20.00;99.90
47514;DHT22;33951;51.988;5.910;2023-05-29T10:43:54;20.10;98.90
47514;DHT22;33951;51.988;5.910;2023-05-29T10:49:36;20.60;99.40
47514;DHT22;33951;51.988;5.910;2023-05-29T10:52:03;20.90;98.40
47514;DHT22;33951;51.988;5.910;2023-05-29T10:54:40;21.10;97.70
47514;DHT22;33951;51.988;5.910;2023-05-29T10:57:07;21.20;97.50
47514;DHT22;33951;51.988;5.910;2023-05-29T10:59:37;21.30;97.40
47514;DHT22;33951;51.988;5.910;2023-05-29T11:02:03;21.50;97.80
47514;DHT22;33951;51.988;5.910;2023-05-29T11:04:30;21.70;96.40
47514;DHT22;33951;51.988;5.910;2023-05-29T11:06:58;21.70;96.70
47514;DHT22;33951;51.988;5.910;2023-05-29T11:09:31;21.80;96.90
47514;DHT22;33951;51.988;5.910;2023-05-29T11:15:08;21.80;96.20
47514;DHT22;33951;51.988;5.910;2023-05-29T11:20:39;21.90;95.80
47514;DHT22;33951;51.988;5.910;2023-05-29T11:23:09;22.10;95.60
47514;DHT22;33951;51.988;5.910;2023-05-29T11:25:44;22.00;95.70
47514;DHT22;33951;51.988;5.910;2023-05-29T11:28:13;22.20;95.60
47514;DHT22;33951;51.988;5.910;2023-05-29T11:30:48;22.40;95.10
47514;DHT22;33951;51.988;5.910;2023-05-29T11:33:25;22.50;95.00
47514;DHT22;33951;51.988;5.910;2023-05-29T11:36:00;22.60;95.30
47514;DHT22;33951;51.988;5.910;2023-05-29T11:38:27;22.70;95.00
47514;DHT22;33951;51.988;5.910;2023-05-29T11:41:04;22.70;94.70
47514;DHT22;33951;51.988;5.910;2023-05-29T11:43:32;22.60;94.70
47514;DHT22;33951;51.988;5.910;2023-05-29T11:46:02;22.60;95.40
47514;DHT22;33951;51.988;5.910;2023-05-29T11:48:27;22.80;95.00
47514;DHT22;33951;51.988;5.910;2023-05-29T11:50:56;23.10;94.30
47514;DHT22;33951;51.988;5.910;2023-05-29T11:53:22;23.30;94.20
47514;DHT22;33951;51.988;5.910;2023-05-29T11:55:50;23.40;94.30
47514;DHT22;33951;51.988;5.910;2023-05-29T11:58:16;23.60;94.30
47514;DHT22;33951;51.988;5.910;2023-05-29T12:00:42;23.50;92.80
47514;DHT22;33951;51.988;5.910;2023-05-29T12:03:08;23.10;92.90
47514;DHT22;33951;51.988;5.910;2023-05-29T12:05:49;23.10;93.80
47514;DHT22;33951;51.988;5.910;2023-05-29T12:08:26;23.00;93.00
47514;DHT22;33951;51.988;5.910;2023-05-29T12:10:53;22.90;93.10
47514;DHT22;33951;51.988;5.910;2023-05-29T12:13:26;22.90;93.50
47514;DHT22;33951;51.988;5.910;2023-05-29T12:15:57;23.20;93.70
47514;DHT22;33951;51.988;5.910;2023-05-29T12:18:30;23.40;93.40
47514;DHT22;33951;51.988;5.910;2023-05-29T12:21:03;23.60;92.60
47514;DHT22;33951;51.988;5.910;2023-05-29T12:23:29;23.60;92.60
47514;DHT22;33951;51.988;5.910;2023-05-29T12:25:55;23.80;92.30
47514;DHT22;33951;51.988;5.910;2023-05-29T12:28:22;24.00;92.40
47514;DHT22;33951;51.988;5.910;2023-05-29T12:30:48;24.20;91.70
47514;DHT22;33951;51.988;5.910;2023-05-29T12:33:31;23.90;91.30
47514;DHT22;33951;51.988;5.910;2023-05-29T12:36:08;23.80;91.20
47514;DHT22;33951;51.988;5.910;2023-05-29T12:38:49;23.80;92.00
47514;DHT22;33951;51.988;5.910;2023-05-29T12:41:28;23.80;91.90
47514;DHT22;33951;51.988;5.910;2023-05-29T12:44:01;24.00;91.30
47514;DHT22;33951;51.988;5.910;2023-05-29T12:46:40;24.00;91.20
47514;DHT22;33951;51.988;5.910;2023-05-29T12:51:42;24.10;90.80
47514;DHT22;33951;51.988;5.910;2023-05-29T12:54:16;24.20;90.60
47514;DHT22;33951;51.988;5.910;2023-05-29T12:56:54;24.10;91.20
47514;DHT22;33951;51.988;5.910;2023-05-29T12:59:26;24.10;91.40
47514;DHT22;33951;51.988;5.910;2023-05-29T13:02:09;24.10;91.50
47514;DHT22;33951;51.988;5.910;2023-05-29T13:04:39;24.30;91.40
47514;DHT22;33951;51.988;5.910;2023-05-29T13:07:08;24.30;90.40
47514;DHT22;33951;51.988;5.910;2023-05-29T13:09:39;24.20;91.60
47514;DHT22;33951;51.988;5.910;2023-05-29T13:12:10;24.10;90.90
47514;DHT22;33951;51.988;5.910;2023-05-29T13:14:35;24.20;90.90
47514;DHT22;33951;51.988;5.910;2023-05-29T13:17:01;24.30;91.10
47514;DHT22;33951;51.988;5.910;2023-05-29T13:19:37;24.10;89.70
47514;DHT22;33951;51.988;5.910;2023-05-29T13:22:25;24.10;90.30
47514;DHT22;33951;51.988;5.910;2023-05-29T13:24:58;24.30;89.60
47514;DHT22;33951;51.988;5.910;2023-05-29T13:27:29;24.30;90.70
47514;DHT22;33951;51.988;5.910;2023-05-29T13:29:58;24.50;90.50
47514;DHT22;33951;51.988;5.910;2023-05-29T13:32:30;24.80;89.20
47514;DHT22;33951;51.988;5.910;2023-05-29T13:34:58;24.90;88.40
47514;DHT22;33951;51.988;5.910;2023-05-29T13:37:24;25.20;90.00
47514;DHT22;33951;51.988;5.910;2023-05-29T13:39:54;25.40;89.00
47514;DHT22;33951;51.988;5.910;2023-05-29T13:42:30;25.40;88.60
47514;DHT22;33951;51.988;5.910;2023-05-29T13:45:01;25.70;88.90
47514;DHT22;33951;51.988;5.910;2023-05-29T13:47:29;25.90;87.80
47514;DHT22;33951;51.988;5.910;2023-05-29T13:49:57;26.00;86.40
47514;DHT22;33951;51.988;5.910;2023-05-29T13:52:23;25.90;85.60
47514;DHT22;33951;51.988;5.910;2023-05-29T13:54:52;26.00;85.60
47514;DHT22;33951;51.988;5.910;2023-05-29T13:57:35;26.00;85.00
47514;DHT22;33951;51.988;5.910;2023-05-29T14:00:03;26.30;83.70
47514;DHT22;33951;51.988;5.910;2023-05-29T14:02:29;26.30;84.80
47514;DHT22;33951;51.988;5.910;2023-05-29T14:04:57;26.40;85.00
47514;DHT22;33951;51.988;5.910;2023-05-29T14:07:26;26.30;84.50
47514;DHT22;33951;51.988;5.910;2023-05-29T14:09:54;26.20;85.00
47514;DHT22;33951;51.988;5.910;2023-05-29T14:12:37;26.30;84.90
47514;DHT22;33951;51.988;5.910;2023-05-29T14:15:08;26.40;83.70
47514;DHT22;33951;51.988;5.910;2023-05-29T14:17:41;26.70;82.80
47514;DHT22;33951;51.988;5.910;2023-05-29T14:20:10;27.10;81.00
47514;DHT22;33951;51.988;5.910;2023-05-29T14:22:42;27.20;80.30
47514;DHT22;33951;51.988;5.910;2023-05-29T14:25:11;27.40;81.20
47514;DHT22;33951;51.988;5.910;2023-05-29T14:27:37;27.50;81.30
47514;DHT22;33951;51.988;5.910;2023-05-29T14:30:05;27.70;82.00
47514;DHT22;33951;51.988;5.910;2023-05-29T14:32:34;28.10;81.40
47514;DHT22;33951;51.988;5.910;2023-05-29T14:34:59;28.30;81.00
47514;DHT22;33951;51.988;5.910;2023-05-29T14:37:29;28.20;80.30
47514;DHT22;33951;51.988;5.910;2023-05-29T14:39:57;28.30;79.90
47514;DHT22;33951;51.988;5.910;2023-05-29T14:42:25;28.40;79.80
47514;DHT22;33951;51.988;5.910;2023-05-29T14:44:51;28.30;79.40
47514;DHT22;33951;51.988;5.910;2023-05-29T14:47:19;28.10;78.60
47514;DHT22;33951;51.988;5.910;2023-05-29T14:49:51;27.90;78.50
47514;DHT22;33951;51.988;5.910;2023-05-29T14:52:19;27.80;79.50
47514;DHT22;33951;51.988;5.910;2023-05-29T14:54:47;27.60;79.50
47514;DHT22;33951;51.988;5.910;2023-05-29T14:57:18;27.20;79.10
47514;DHT22;33951;51.988;5.910;2023-05-29T15:00:07;26.90;80.80
47514;DHT22;33951;51.988;5.910;2023-05-29T15:02:34;26.70;80.00
47514;DHT22;33951;51.988;5.910;2023-05-29T15:05:00;26.60;80.70
47514;DHT22;33951;51.988;5.910;2023-05-29T15:07:37;26.60;80.00
47514;DHT22;33951;51.988;5.910;2023-05-29T15:10:06;26.70;80.40
47514;DHT22;33951;51.988;5.910;2023-05-29T15:12:34;26.80;79.20
47514;DHT22;33951;51.988;5.910;2023-05-29T15:15:03;26.90;79.30
47514;DHT22;33951;51.988;5.910;2023-05-29T15:17:32;26.90;78.70
47514;DHT22;33951;51.988;5.910;2023-05-29T15:19:58;27.00;79.40
47514;DHT22;33951;51.988;5.910;2023-05-29T15:22:35;26.80;79.00
47514;DHT22;33951;51.988;5.910;2023-05-29T15:25:11;26.70;78.70
47514;DHT22;33951;51.988;5.910;2023-05-29T15:27:37;26.60;78.30
47514;DHT22;33951;51.988;5.910;2023-05-29T15:30:18;26.40;78.40
47514;DHT22;33951;51.988;5.910;2023-05-29T15:32:45;26.30;77.90
47514;DHT22;33951;51.988;5.910;2023-05-29T15:35:16;26.30;77.70
47514;DHT22;33951;51.988;5.910;2023-05-29T15:37:49;26.30;76.90
47514;DHT22;33951;51.988;5.910;2023-05-29T15:40:18;26.10;77.00
47514;DHT22;33951;51.988;5.910;2023-05-29T15:42:44;25.90;76.70
47514;DHT22;33951;51.988;5.910;2023-05-29T15:45:13;25.90;76.90
47514;DHT22;33951;51.988;5.910;2023-05-29T15:47:39;26.00;78.00
47514;DHT22;33951;51.988;5.910;2023-05-29T15:50:08;26.00;78.60
47514;DHT22;33951;51.988;5.910;2023-05-29T15:52:34;26.10;79.40
47514;DHT22;33951;51.988;5.910;2023-05-29T15:55:15;26.20;78.90
47514;DHT22;33951;51.988;5.910;2023-05-29T15:57:44;26.10;78.80
47514;DHT22;33951;51.988;5.910;2023-05-29T16:00:10;25.90;77.70
47514;DHT22;33951;51.988;5.910;2023-05-29T16:02:39;25.70;78.90
47514;DHT22;33951;51.988;5.910;2023-05-29T16:05:07;25.70;78.50
47514;DHT22;33951;51.988;5.910;2023-05-29T16:07:44;25.70;78.80
47514;DHT22;33951;51.988;5.910;2023-05-29T16:10:13;26.00;78.20
47514;DHT22;33951;51.988;5.910;2023-05-29T16:12:42;26.10;78.60
47514;DHT22;33951;51.988;5.910;2023-05-29T16:15:13;26.60;78.60
47514;DHT22;33951;51.988;5.910;2023-05-29T16:17:40;26.70;77.50
47514;DHT22;33951;51.988;5.910;2023-05-29T16:20:09;26.90;77.30
47514;DHT22;33951;51.988;5.910;2023-05-29T16:22:35;27.30;76.90
47514;DHT22;33951;51.988;5.910;2023-05-29T16:25:09;27.40;76.20
47514;DHT22;33951;51.988;5.910;2023-05-29T16:27:47;27.20;75.10
47514;DHT22;33951;51.988;5.910;2023-05-29T16:30:12;27.00;74.80
47514;DHT22;33951;51.988;5.910;2023-05-29T16:32:40;26.90;76.60
47514;DHT22;33951;51.988;5.910;2023-05-29T16:35:11;26.70;76.20
47514;DHT22;33951;51.988;5.910;2023-05-29T16:37:57;26.80;76.90
47514;DHT22;33951;51.988;5.910;2023-05-29T16:40:28;26.70;76.70
47514;DHT22;33951;51.988;5.910;2023-05-29T16:42:56;26.70;77.30
47514;DHT22;33951;51.988;5.910;2023-05-29T16:45:22;27.00;77.30
47514;DHT22;33951;51.988;5.910;2023-05-29T16:48:01;27.10;76.00
47514;DHT22;33951;51.988;5.910;2023-05-29T16:50:32;27.20;76.50
47514;DHT22;33951;51.988;5.910;2023-05-29T16:52:58;27.30;75.70
47514;DHT22;33951;51.988;5.910;2023-05-29T16:55:24;27.00;75.60
47514;DHT22;33951;51.988;5.910;2023-05-29T16:57:56;27.00;76.10
47514;DHT22;33951;51.988;5.910;2023-05-29T17:00:22;27.30;75.50
47514;DHT22;33951;51.988;5.910;2023-05-29T17:02:57;27.30;74.80
47514;DHT22;33951;51.988;5.910;2023-05-29T17:05:36;26.80;75.10
47514;DHT22;33951;51.988;5.910;2023-05-29T17:08:09;26.70;74.90
47514;DHT22;33951;51.988;5.910;2023-05-29T17:10:46;26.40;74.80
47514;DHT22;33951;51.988;5.910;2023-05-29T17:13:15;26.60;75.40
47514;DHT22;33951;51.988;5.910;2023-05-29T17:15:47;26.70;73.90
47514;DHT22;33951;51.988;5.910;2023-05-29T17:18:12;26.50;73.50
47514;DHT22;33951;51.988;5.910;2023-05-29T17:20:46;26.60;74.50
47514;DHT22;33951;51.988;5.910;2023-05-29T17:23:14;26.70;74.60
47514;DHT22;33951;51.988;5.910;2023-05-29T17:25:53;26.70;73.80
47514;DHT22;33951;51.988;5.910;2023-05-29T17:28:41;26.60;73.60
47514;DHT22;33951;51.988;5.910;2023-05-29T17:31:09;26.70;74.10
47514;DHT22;33951;51.988;5.910;2023-05-29T17:33:41;26.70;73.80
47514;DHT22;33951;51.988;5.910;2023-05-29T17:36:07;26.40;73.60
47514;DHT22;33951;51.988;5.910;2023-05-29T17:38:38;26.50;73.80
47514;DHT22;33951;51.988;5.910;2023-05-29T17:41:06;26.40;74.30
47514;DHT22;33951;51.988;5.910;2023-05-29T17:43:48;26.30;73.90
47514;DHT22;33951;51.988;5.910;2023-05-29T17:46:20;26.20;74.20
47514;DHT22;33951;51.988;5.910;2023-05-29T17:48:53;26.30;74.20
47514;DHT22;33951;51.988;5.910;2023-05-29T17:51:31;26.10;73.50
47514;DHT22;33951;51.988;5.910;2023-05-29T17:53:56;26.20;73.80
47514;DHT22;33951;51.988;5.910;2023-05-29T17:56:28;26.00;73.30
47514;DHT22;33951;51.988;5.910;2023-05-29T17:59:11;26.00;74.30
47514;DHT22;33951;51.988;5.910;2023-05-29T18:01:52;26.00;73.20
47514;DHT22;33951;51.988;5.910;2023-05-29T18:04:20;25.90;73.50
47514;DHT22;33951;51.988;5.910;2023-05-29T18:07:01;25.40;73.90
47514;DHT22;33951;51.988;5.910;2023-05-29T18:09:33;25.30;75.10
47514;DHT22;33951;51.988;5.910;2023-05-29T18:12:07;25.10;75.30
47514;DHT22;33951;51.988;5.910;2023-05-29T18:14:43;25.10;75.90
47514;DHT22;33951;51.988;5.910;2023-05-29T18:17:28;25.30;76.40
47514;DHT22;33951;51.988;5.910;2023-05-29T18:20:00;24.90;76.60
47514;DHT22;33951;51.988;5.910;2023-05-29T18:22:28;24.50;76.60
47514;DHT22;33951;51.988;5.910;2023-05-29T18:24:59;23.90;77.10
47514;DHT22;33951;51.988;5.910;2023-05-29T18:27:29;23.50;77.70
47514;DHT22;33951;51.988;5.910;2023-05-29T18:30:07;23.40;78.90
47514;DHT22;33951;51.988;5.910;2023-05-29T18:32:38;23.20;79.10
47514;DHT22;33951;51.988;5.910;2023-05-29T18:35:05;22.60;79.60
47514;DHT22;33951;51.988;5.910;2023-05-29T18:37:37;22.00;81.20
47514;DHT22;33951;51.988;5.910;2023-05-29T18:40:10;21.50;82.50
47514;DHT22;33951;51.988;5.910;2023-05-29T18:42:39;21.00;83.40
47514;DHT22;33951;51.988;5.910;2023-05-29T18:45:06;20.60;83.80
47514;DHT22;33951;51.988;5.910;2023-05-29T18:47:32;20.30;83.70
47514;DHT22;33951;51.988;5.910;2023-05-29T18:49:58;20.10;84.30
47514;DHT22;33951;51.988;5.910;2023-05-29T18:52:32;19.80;84.90
47514;DHT22;33951;51.988;5.910;2023-05-29T18:55:08;19.70;84.90
47514;DHT22;33951;51.988;5.910;2023-05-29T18:57:40;19.50;85.40
47514;DHT22;33951;51.988;5.910;2023-05-29T19:00:07;19.30;86.10
47514;DHT22;33951;51.988;5.910;2023-05-29T19:02:39;19.30;86.20
47514;DHT22;33951;51.988;5.910;2023-05-29T19:05:07;19.10;85.40
47514;DHT22;33951;51.988;5.910;2023-05-29T19:07:36;19.00;86.00
47514;DHT22;33951;51.988;5.910;2023-05-29T19:10:05;18.80;86.40
47514;DHT22;33951;51.988;5.910;2023-05-29T19:12:33;18.60;86.70
47514;DHT22;33951;51.988;5.910;2023-05-29T19:15:02;18.30;87.80
47514;DHT22;33951;51.988;5.910;2023-05-29T19:17:31;17.90;88.40
47514;DHT22;33951;51.988;5.910;2023-05-29T19:19:56;17.70;89.40
47514;DHT22;33951;51.988;5.910;2023-05-29T19:25:14;17.50;89.90
47514;DHT22;33951;51.988;5.910;2023-05-29T19:27:49;17.50;89.90
47514;DHT22;33951;51.988;5.910;2023-05-29T19:30:17;17.40;90.30
47514;DHT22;33951;51.988;5.910;2023-05-29T19:32:46;17.20;90.30
47514;DHT22;33951;51.988;5.910;2023-05-29T19:35:14;17.10;90.60
47514;DHT22;33951;51.988;5.910;2023-05-29T19:37:48;17.00;90.90
47514;DHT22;33951;51.988;5.910;2023-05-29T19:40:16;16.80;91.00
47514;DHT22;33951;51.988;5.910;2023-05-29T19:42:45;16.70;91.30
47514;DHT22;33951;51.988;5.910;2023-05-29T19:45:13;16.50;91.60
47514;DHT22;33951;51.988;5.910;2023-05-29T19:47:39;16.40;91.80
47514;DHT22;33951;51.988;5.910;2023-05-29T19:50:05;16.20;91.90
47514;DHT22;33951;51.988;5.910;2023-05-29T19:52:44;16.10;92.30
47514;DHT22;33951;51.988;5.910;2023-05-29T19:55:12;15.90;92.70
47514;DHT22;33951;51.988;5.910;2023-05-29T19:57:41;15.80;92.70
47514;DHT22;33951;51.988;5.910;2023-05-29T20:00:10;15.80;93.10
47514;DHT22;33951;51.988;5.910;2023-05-29T20:02:41;15.60;93.30
47514;DHT22;33951;51.988;5.910;2023-05-29T20:05:14;15.50;93.70
47514;DHT22;33951;51.988;5.910;2023-05-29T20:07:53;15.40;93.70
47514;DHT22;33951;51.988;5.910;2023-05-29T20:10:43;15.40;93.80